createdAt,value
2018-12-15T00:00:46.233Z,2.00
2018-12-15T00:03:13.882Z,2.10
2018-12-15T00:05:41.503Z,2.10
2018-12-15T00:08:09.081Z,2.20
2018-12-15T00:10:36.621Z,2.20
2018-12-15T00:13:04.128Z,2.20
2018-12-15T00:15:31.694Z,2.20
2018-12-15T00:17:59.204Z,2.30
2018-12-15T00:20:26.706Z,2.30
2018-12-15T00:22:54.233Z,2.20
2018-12-15T00:25:21.869Z,2.20
2018-12-15T00:27:49.493Z,2.20
2018-12-15T00:30:17.024Z,2.20
2018-12-15T00:32:44.601Z,2.20
2018-12-15T00:35:12.109Z,2.20
2018-12-15T00:37:39.605Z,2.20
2018-12-15T00:40:07.428Z,2.20
2018-12-15T00:42:34.908Z,2.20
2018-12-15T00:45:02.753Z,2.20
2018-12-15T00:47:30.272Z,2.20
2018-12-15T00:49:57.773Z,2.20
2018-12-15T00:52:25.428Z,2.30
2018-12-15T00:54:52.941Z,2.30
2018-12-15T00:57:20.447Z,2.30
2018-12-15T00:59:47.959Z,2.30
2018-12-15T01:02:15.547Z,2.30
2018-12-15T01:04:43.164Z,2.30
2018-12-15T01:07:10.676Z,2.30
2018-12-15T01:09:38.214Z,2.20
2018-12-15T01:12:05.773Z,2.20
2018-12-15T01:14:33.266Z,2.20
2018-12-15T01:17:00.796Z,2.20
2018-12-15T01:19:28.301Z,2.10
2018-12-15T01:21:55.822Z,2.10
2018-12-15T01:24:23.321Z,2.20
2018-12-15T01:26:50.904Z,2.20
2018-12-15T01:29:18.429Z,2.20
2018-12-15T01:31:46.076Z,2.30
2018-12-15T01:34:13.588Z,2.30
2018-12-15T01:36:41.113Z,2.30
2018-12-15T01:39:08.677Z,2.40
2018-12-15T01:41:36.171Z,2.40
2018-12-15T01:44:03.785Z,2.40
2018-12-15T01:46:31.308Z,2.20
2018-12-15T01:48:59.084Z,2.10
2018-12-15T01:51:26.614Z,2.10
2018-12-15T01:53:54.125Z,2.10
2018-12-15T01:56:21.672Z,1.90
2018-12-15T01:58:49.293Z,1.90
2018-12-15T02:01:16.809Z,2.00
2018-12-15T02:03:44.320Z,2.00
2018-12-15T02:06:11.812Z,2.00
2018-12-15T02:08:39.330Z,2.10
2018-12-15T02:11:06.880Z,2.10
2018-12-15T02:13:34.404Z,2.10
2018-12-15T02:16:01.901Z,2.00
2018-12-15T02:18:29.428Z,2.00
2018-12-15T02:20:56.949Z,2.00
2018-12-15T02:23:24.609Z,2.00
2018-12-15T02:25:52.133Z,2.00
2018-12-15T02:28:19.641Z,2.10
2018-12-15T02:30:47.736Z,2.00
2018-12-15T02:33:15.437Z,2.10
2018-12-15T02:35:43.180Z,2.10
2018-12-15T02:38:10.678Z,2.20
2018-12-15T02:40:38.176Z,2.10
2018-12-15T02:43:05.686Z,2.10
2018-12-15T02:45:33.181Z,2.00
2018-12-15T02:48:00.709Z,2.00
2018-12-15T02:50:28.284Z,2.00
2018-12-15T02:52:55.885Z,1.90
2018-12-15T02:55:23.364Z,1.90
2018-12-15T02:57:50.920Z,1.90
2018-12-15T03:00:18.397Z,2.00
2018-12-15T03:02:45.900Z,2.10
2018-12-15T03:05:13.640Z,2.10
2018-12-15T03:07:41.347Z,2.00
2018-12-15T03:10:09.173Z,2.00
2018-12-15T03:12:36.670Z,2.00
2018-12-15T03:15:04.959Z,2.00
2018-12-15T03:17:32.517Z,2.00
2018-12-15T03:20:00.880Z,2.00
2018-12-15T03:22:28.486Z,1.90
2018-12-15T03:24:56.114Z,1.90
2018-12-15T03:27:23.607Z,1.80
2018-12-15T03:29:51.181Z,1.90
2018-12-15T03:32:18.718Z,1.90
2018-12-15T03:34:46.211Z,1.90
2018-12-15T03:37:13.701Z,1.90
2018-12-15T03:39:41.280Z,1.80
2018-12-15T03:42:08.828Z,1.80
2018-12-15T03:44:36.325Z,1.90
2018-12-15T03:47:03.908Z,1.90
2018-12-15T03:49:31.429Z,2.00
2018-12-15T03:51:59.084Z,1.90
2018-12-15T03:54:26.616Z,1.90
2018-12-15T03:56:54.109Z,1.80
2018-12-15T03:59:21.737Z,1.80
2018-12-15T04:01:49.246Z,1.80
2018-12-15T04:04:16.750Z,1.90
2018-12-15T04:06:44.264Z,1.80
2018-12-15T04:09:11.751Z,1.80
2018-12-15T04:11:39.262Z,1.80
2018-12-15T04:14:06.764Z,1.80
2018-12-15T04:16:34.446Z,1.80
2018-12-15T04:19:01.940Z,1.80
2018-12-15T04:21:29.432Z,1.80
2018-12-15T04:23:56.940Z,1.80
2018-12-15T04:26:24.571Z,1.90
2018-12-15T04:28:52.073Z,1.90
2018-12-15T04:31:19.589Z,1.80
2018-12-15T04:33:47.195Z,1.80
2018-12-15T04:36:16.216Z,1.90
2018-12-15T04:38:43.837Z,1.90
2018-12-15T04:41:11.567Z,2.00
2018-12-15T04:43:39.144Z,2.10
2018-12-15T04:46:06.680Z,2.10
2018-12-15T04:48:34.177Z,2.10
2018-12-15T04:51:01.805Z,2.10
2018-12-15T04:53:29.336Z,2.10
2018-12-15T04:55:56.948Z,2.10
2018-12-15T04:58:24.471Z,2.10
2018-12-15T05:00:51.913Z,2.00
2018-12-15T05:03:19.409Z,2.10
2018-12-15T05:05:46.926Z,2.10
2018-12-15T05:08:14.428Z,2.10
2018-12-15T05:10:41.921Z,2.10
2018-12-15T05:13:09.441Z,2.10
2018-12-15T05:15:37.178Z,2.20
2018-12-15T05:18:04.696Z,2.20
2018-12-15T05:20:32.336Z,2.20
2018-12-15T05:23:00.134Z,2.30
2018-12-15T05:25:27.666Z,2.30
2018-12-15T05:27:55.232Z,2.30
2018-12-15T05:30:22.857Z,2.30
2018-12-15T05:32:50.356Z,2.30
2018-12-15T05:35:17.875Z,2.30
2018-12-15T05:37:45.365Z,2.30
2018-12-15T05:40:13.250Z,2.30
2018-12-15T05:42:40.852Z,2.30
2018-12-15T05:45:08.600Z,2.30
2018-12-15T05:47:36.300Z,2.20
2018-12-15T05:50:05.005Z,2.20
2018-12-15T05:52:32.505Z,2.10
2018-12-15T05:55:00.082Z,2.20
2018-12-15T05:57:27.655Z,2.10
2018-12-15T05:59:55.287Z,2.00
2018-12-15T06:02:23.280Z,1.90
2018-12-15T06:04:51.671Z,1.90
2018-12-15T06:07:19.204Z,1.80
2018-12-15T06:09:46.705Z,1.80
2018-12-15T06:12:14.230Z,1.80
2018-12-15T06:14:41.704Z,1.80
2018-12-15T06:17:09.218Z,1.70
2018-12-15T06:19:36.712Z,1.80
2018-12-15T06:22:04.221Z,1.80
2018-12-15T06:24:31.809Z,1.80
2018-12-15T06:26:59.328Z,1.80
2018-12-15T06:29:26.849Z,1.80
2018-12-15T06:31:54.347Z,1.80
2018-12-15T06:34:21.860Z,1.90
2018-12-15T06:36:49.391Z,1.90
2018-12-15T06:39:16.896Z,1.90
2018-12-15T06:41:44.437Z,1.90
2018-12-15T06:44:11.963Z,1.90
2018-12-15T06:46:39.467Z,2.00
2018-12-15T06:49:07.256Z,2.00
2018-12-15T06:51:34.760Z,2.00
2018-12-15T06:54:02.268Z,2.00
2018-12-15T06:56:29.776Z,2.00
2018-12-15T06:58:57.336Z,2.00
2018-12-15T07:01:24.845Z,2.00
2018-12-15T07:03:52.373Z,2.00
2018-12-15T07:06:19.863Z,2.00
2018-12-15T07:08:47.360Z,1.90
2018-12-15T07:11:14.933Z,1.90
2018-12-15T07:13:42.465Z,1.80
2018-12-15T07:16:09.960Z,1.80
2018-12-15T07:18:37.570Z,1.60
2018-12-15T07:21:05.138Z,1.60
2018-12-15T07:23:32.616Z,1.60
2018-12-15T07:26:00.169Z,1.60
2018-12-15T07:28:27.702Z,1.60
2018-12-15T07:30:55.261Z,1.60
2018-12-15T07:33:22.850Z,1.50
2018-12-15T07:35:50.362Z,1.40
2018-12-15T07:38:17.856Z,1.40
2018-12-15T07:40:45.599Z,1.40
2018-12-15T07:43:13.260Z,1.50
2018-12-15T07:45:40.749Z,1.50
2018-12-15T07:48:08.256Z,1.50
2018-12-15T07:50:35.877Z,1.40
2018-12-15T07:53:03.408Z,1.40
2018-12-15T07:55:30.906Z,1.40
2018-12-15T07:57:58.392Z,1.20
2018-12-15T08:00:26.179Z,1.20
2018-12-15T08:02:53.769Z,1.20
2018-12-15T08:05:21.288Z,1.20
2018-12-15T08:07:48.806Z,1.30
2018-12-15T08:10:18.385Z,1.20
2018-12-15T08:12:47.897Z,1.20
2018-12-15T08:15:15.472Z,1.20
2018-12-15T08:17:42.998Z,1.20
2018-12-15T08:20:10.635Z,1.20
2018-12-15T08:22:38.156Z,1.20
2018-12-15T08:25:05.864Z,1.30
2018-12-15T08:27:33.395Z,1.30
2018-12-15T08:30:00.901Z,1.40
2018-12-15T08:32:28.622Z,1.40
2018-12-15T08:34:56.191Z,1.50
2018-12-15T08:37:23.799Z,1.50
2018-12-15T08:39:51.615Z,1.50
2018-12-15T08:42:19.101Z,1.50
2018-12-15T08:44:46.635Z,1.40
2018-12-15T08:47:14.292Z,1.40
2018-12-15T08:49:41.920Z,1.40
2018-12-15T08:52:09.433Z,1.40
2018-12-15T08:54:36.920Z,1.40
2018-12-15T08:57:04.458Z,1.40
2018-12-15T08:59:32.023Z,1.30
2018-12-15T09:01:59.593Z,1.30
2018-12-15T09:04:27.107Z,1.30
2018-12-15T09:06:54.657Z,1.20
2018-12-15T09:09:22.148Z,1.30
2018-12-15T09:11:49.753Z,1.30
2018-12-15T09:14:17.248Z,1.30
2018-12-15T09:16:44.793Z,1.30
2018-12-15T09:19:12.397Z,3.30
2018-12-15T09:21:40.017Z,1.30
2018-12-15T09:24:07.512Z,1.40
2018-12-15T09:26:35.005Z,1.30
2018-12-15T09:29:02.547Z,1.30
2018-12-15T09:31:30.143Z,1.20
2018-12-15T09:33:57.817Z,1.20
2018-12-15T09:36:25.405Z,1.20
2018-12-15T09:38:53.082Z,1.20
2018-12-15T09:41:20.713Z,1.30
2018-12-15T09:43:48.260Z,1.30
2018-12-15T09:46:15.758Z,1.20
2018-12-15T09:48:43.274Z,1.20
2018-12-15T09:51:10.846Z,1.20
2018-12-15T09:53:38.361Z,1.30
2018-12-15T09:56:05.861Z,1.40
2018-12-15T09:58:33.371Z,1.30
2018-12-15T10:01:00.878Z,1.20
2018-12-15T10:03:28.513Z,1.20
2018-12-15T10:05:56.029Z,1.20
2018-12-15T10:08:23.534Z,1.20
2018-12-15T10:10:51.122Z,1.20
2018-12-15T10:13:18.852Z,1.20
2018-12-15T10:15:46.345Z,1.10
2018-12-15T10:18:13.873Z,1.10
2018-12-15T10:20:41.508Z,1.10
2018-12-15T10:23:09.025Z,1.10
2018-12-15T10:25:36.589Z,1.10
2018-12-15T10:28:04.100Z,1.10
2018-12-15T10:30:37.363Z,1.10
2018-12-15T10:33:05.098Z,1.00
2018-12-15T10:35:32.918Z,0.90
2018-12-15T10:38:00.750Z,1.00
2018-12-15T10:40:28.695Z,1.00
2018-12-15T10:42:56.873Z,1.10
2018-12-15T10:45:24.667Z,1.10
2018-12-15T10:47:54.122Z,1.10
2018-12-15T10:50:22.147Z,1.10
2018-12-15T10:52:50.186Z,1.10
2018-12-15T10:55:18.301Z,1.20
2018-12-15T10:57:46.293Z,1.30
2018-12-15T11:00:20.022Z,1.20
2018-12-15T11:02:48.139Z,1.20
2018-12-15T11:05:17.213Z,1.20
2018-12-15T11:07:57.707Z,1.20
2018-12-15T11:10:33.804Z,1.20
2018-12-15T11:13:01.429Z,1.30
2018-12-15T11:15:28.950Z,1.40
2018-12-15T11:17:56.490Z,1.30
2018-12-15T11:20:24.073Z,1.20
2018-12-15T11:22:51.671Z,1.10
2018-12-15T11:25:19.322Z,1.00
2018-12-15T11:27:48.472Z,1.00
2018-12-15T11:30:16.159Z,1.10
2018-12-15T11:32:43.668Z,1.00
2018-12-15T11:35:11.409Z,1.00
2018-12-15T11:37:38.946Z,1.00
2018-12-15T11:40:07.169Z,1.10
2018-12-15T11:42:34.699Z,1.10
2018-12-15T11:45:02.355Z,1.00
2018-12-15T11:47:29.875Z,1.00
2018-12-15T11:49:57.365Z,1.10
2018-12-15T11:52:25.745Z,1.10
2018-12-15T11:54:53.288Z,1.10
2018-12-15T11:57:20.871Z,1.20
2018-12-15T11:59:48.469Z,1.20
2018-12-15T12:02:16.016Z,1.20
2018-12-15T12:04:43.593Z,1.20
2018-12-15T12:07:11.193Z,1.30
2018-12-15T12:09:38.779Z,1.30
2018-12-15T12:12:06.336Z,1.30
2018-12-15T12:14:34.009Z,1.30
2018-12-15T12:17:01.602Z,1.30
2018-12-15T12:19:29.284Z,1.30
2018-12-15T12:21:56.800Z,1.30
2018-12-15T12:24:24.411Z,1.30
2018-12-15T12:26:51.947Z,1.20
2018-12-15T12:29:19.564Z,1.30
2018-12-15T12:31:47.113Z,1.30
2018-12-15T12:34:14.760Z,1.30
2018-12-15T12:36:42.513Z,1.30
2018-12-15T12:39:10.075Z,1.30
2018-12-15T12:41:37.598Z,1.30
2018-12-15T12:44:05.189Z,1.30
2018-12-15T12:46:32.754Z,1.30
2018-12-15T12:49:00.293Z,1.30
2018-12-15T12:51:27.871Z,1.30
2018-12-15T12:53:55.405Z,1.30
2018-12-15T12:56:23.176Z,1.30
2018-12-15T12:58:50.694Z,1.30
2018-12-15T13:01:18.255Z,1.30
2018-12-15T13:03:46.008Z,1.20
2018-12-15T13:06:13.592Z,1.10
2018-12-15T13:08:41.091Z,1.10
2018-12-15T13:11:08.743Z,1.10
2018-12-15T13:13:36.245Z,1.20
2018-12-15T13:16:03.766Z,1.20
2018-12-15T13:18:31.420Z,1.20
2018-12-15T13:20:59.163Z,1.20
2018-12-15T13:23:26.895Z,1.20
2018-12-15T13:25:54.421Z,1.20
2018-12-15T13:28:22.627Z,1.20
2018-12-15T13:30:50.167Z,1.20
2018-12-15T13:33:33.972Z,1.20
2018-12-15T13:36:01.606Z,1.10
2018-12-15T13:38:29.151Z,1.10
2018-12-15T13:40:56.838Z,1.10
2018-12-15T13:43:24.480Z,1.10
2018-12-15T13:45:52.054Z,1.10
2018-12-15T13:48:19.644Z,1.10
2018-12-15T13:50:47.172Z,1.20
2018-12-15T13:53:14.716Z,1.20
2018-12-15T13:55:42.477Z,1.20
2018-12-15T13:58:10.022Z,1.00
2018-12-15T14:00:37.563Z,1.00
2018-12-15T14:03:05.091Z,1.00
2018-12-15T14:05:32.713Z,1.00
2018-12-15T14:08:00.316Z,1.00
2018-12-15T14:10:28.041Z,1.00
2018-12-15T14:12:55.564Z,1.00
2018-12-15T14:15:23.077Z,0.90
2018-12-15T14:17:50.609Z,0.90
2018-12-15T14:20:18.238Z,0.90
2018-12-15T14:22:45.781Z,1.00
2018-12-15T14:25:13.452Z,0.90
2018-12-15T14:27:41.004Z,0.90
2018-12-15T14:30:08.779Z,1.00
2018-12-15T14:32:36.273Z,0.90
2018-12-15T14:35:05.830Z,0.90
2018-12-15T14:37:33.339Z,0.80
2018-12-15T14:40:00.931Z,0.70
2018-12-15T14:42:28.535Z,0.70
2018-12-15T14:44:56.073Z,0.70
2018-12-15T14:47:23.580Z,0.60
2018-12-15T14:49:51.074Z,0.70
2018-12-15T14:52:18.837Z,0.80
2018-12-15T14:54:46.370Z,0.70
2018-12-15T14:57:16.014Z,0.80
2018-12-15T14:59:43.569Z,0.70
2018-12-15T15:02:11.254Z,0.80
2018-12-15T15:04:38.761Z,0.70
2018-12-15T15:07:06.324Z,0.70
2018-12-15T15:09:33.984Z,0.50
2018-12-15T15:12:01.686Z,0.60
2018-12-15T15:14:29.232Z,0.50
2018-12-15T15:16:57.252Z,0.50
2018-12-15T15:19:24.946Z,0.50
2018-12-15T15:21:52.449Z,0.50
2018-12-15T15:24:20.087Z,0.60
2018-12-15T15:26:47.616Z,0.50
2018-12-15T15:29:15.139Z,0.50
2018-12-15T15:31:42.854Z,0.60
2018-12-15T15:34:10.469Z,0.60
2018-12-15T15:36:38.212Z,0.60
2018-12-15T15:39:06.533Z,0.60
2018-12-15T15:41:34.186Z,0.50
2018-12-15T15:44:01.761Z,0.40
2018-12-15T15:46:29.333Z,0.40
2018-12-15T15:48:56.971Z,0.40
2018-12-15T15:51:24.527Z,0.40
2018-12-15T15:53:52.114Z,0.40
2018-12-15T15:56:19.695Z,0.30
2018-12-15T15:58:47.224Z,0.20
2018-12-15T16:01:14.815Z,0.20
2018-12-15T16:03:42.356Z,0.20
2018-12-15T16:06:09.904Z,0.10
2018-12-15T16:08:37.434Z,0.10
2018-12-15T16:11:05.044Z,0.10
2018-12-15T16:13:32.565Z,0.00
2018-12-15T16:16:00.096Z,0.00
2018-12-15T16:18:27.585Z,0.00
2018-12-15T16:20:55.096Z,-0.10
2018-12-15T16:23:22.644Z,-0.10
2018-12-15T16:25:50.156Z,-0.10
2018-12-15T16:28:17.672Z,-0.20
2018-12-15T16:30:45.257Z,-0.20
2018-12-15T16:33:12.827Z,-0.10
2018-12-15T16:35:40.358Z,-0.20
2018-12-15T16:38:07.877Z,-0.10
2018-12-15T16:40:35.452Z,-0.20
2018-12-15T16:43:02.980Z,-0.10
2018-12-15T16:45:30.631Z,-0.10
2018-12-15T16:47:58.256Z,-0.10
2018-12-15T16:50:25.785Z,-0.10
2018-12-15T16:52:53.602Z,-0.20
2018-12-15T16:55:21.201Z,-0.20
2018-12-15T16:57:48.740Z,-0.20
2018-12-15T17:00:16.251Z,-0.10
2018-12-15T17:02:43.844Z,-0.10
2018-12-15T17:05:11.360Z,-0.10
2018-12-15T17:07:38.861Z,-0.10
2018-12-15T17:10:06.792Z,-0.10
2018-12-15T17:12:34.329Z,-0.20
2018-12-15T17:15:01.850Z,-0.20
2018-12-15T17:17:29.441Z,-0.30
2018-12-15T17:19:57.094Z,-0.30
2018-12-15T17:22:24.622Z,-0.30
2018-12-15T17:24:52.121Z,-0.20
2018-12-15T17:27:28.257Z,-0.20
2018-12-15T17:29:55.916Z,-0.30
2018-12-15T17:32:23.554Z,-0.20
2018-12-15T17:34:51.110Z,-0.20
2018-12-15T17:37:18.668Z,-0.30
2018-12-15T17:39:46.269Z,-0.20
2018-12-15T17:42:13.786Z,-0.30
2018-12-15T17:44:41.321Z,-0.20
2018-12-15T17:47:08.811Z,-0.30
2018-12-15T17:49:36.320Z,-0.30
2018-12-15T17:52:03.830Z,-0.30
2018-12-15T17:54:31.384Z,-0.40
2018-12-15T17:56:58.945Z,-0.30
2018-12-15T17:59:26.492Z,-0.40
2018-12-15T18:01:53.977Z,-0.40
2018-12-15T18:04:21.616Z,-0.40
2018-12-15T18:06:49.209Z,-0.40
2018-12-15T18:09:16.817Z,-0.30
2018-12-15T18:11:44.342Z,-0.40
2018-12-15T18:14:11.954Z,-0.30
2018-12-15T18:16:39.489Z,-0.30
2018-12-15T18:19:07.217Z,-0.40
2018-12-15T18:21:34.930Z,-0.40
2018-12-15T18:24:02.453Z,-0.40
2018-12-15T18:26:29.997Z,-0.30
2018-12-15T18:28:57.516Z,-0.30
2018-12-15T18:31:25.018Z,-0.30
2018-12-15T18:33:52.622Z,-0.30
2018-12-15T18:36:20.129Z,-0.30
2018-12-15T18:38:47.741Z,-0.30
2018-12-15T18:41:15.284Z,-0.40
2018-12-15T18:43:42.841Z,-0.40
2018-12-15T18:46:10.373Z,-0.40
2018-12-15T18:48:37.884Z,-0.40
2018-12-15T18:51:05.388Z,-0.40
2018-12-15T18:53:32.913Z,-0.40
2018-12-15T18:56:00.458Z,-0.50
2018-12-15T18:58:28.002Z,-0.50
2018-12-15T19:00:55.541Z,-0.50
2018-12-15T19:03:23.277Z,-0.50
2018-12-15T19:05:50.856Z,-0.60
2018-12-15T19:08:18.380Z,-0.60
2018-12-15T19:10:46.103Z,-0.60
2018-12-15T19:13:13.732Z,-0.70
2018-12-15T19:15:41.228Z,-0.70
2018-12-15T19:18:08.860Z,-0.70
2018-12-15T19:20:36.391Z,-0.70
2018-12-15T19:23:03.902Z,-0.70
2018-12-15T19:25:31.433Z,-0.70
2018-12-15T19:27:58.957Z,-0.70
2018-12-15T19:30:26.678Z,-0.70
2018-12-15T19:32:54.190Z,-0.70
2018-12-15T19:35:22.733Z,-0.70
2018-12-15T19:37:51.065Z,-0.70
2018-12-15T19:40:18.554Z,0.70
2018-12-15T19:42:46.072Z,-0.60
2018-12-15T19:45:13.597Z,-0.70
2018-12-15T19:47:41.225Z,-0.60
2018-12-15T19:50:08.801Z,-0.70
2018-12-15T19:52:36.309Z,-0.70
2018-12-15T19:55:04.933Z,-0.70
2018-12-15T19:57:32.448Z,-0.70
2018-12-15T20:00:00.051Z,-0.70
2018-12-15T20:02:27.551Z,-0.70
2018-12-15T20:04:55.064Z,-0.70
2018-12-15T20:07:22.761Z,-0.70
2018-12-15T20:09:50.277Z,-0.70
2018-12-15T20:12:17.768Z,-0.70
2018-12-15T20:14:45.343Z,-0.80
2018-12-15T20:17:12.864Z,-0.70
2018-12-15T20:19:40.434Z,-0.80
2018-12-15T20:22:08.214Z,-1.40
2018-12-15T20:24:35.841Z,-0.80
2018-12-15T20:27:03.438Z,-0.90
2018-12-15T20:29:31.000Z,-0.90
2018-12-15T20:31:58.519Z,-0.90
2018-12-15T20:34:26.025Z,-0.90
2018-12-15T20:36:53.732Z,-1.00
2018-12-15T20:39:21.237Z,-1.00
2018-12-15T20:41:48.745Z,-1.00
2018-12-15T20:44:16.367Z,-0.90
2018-12-15T20:46:43.927Z,-0.90
2018-12-15T20:49:11.436Z,-0.90
2018-12-15T20:51:42.769Z,-0.90
2018-12-15T20:54:08.494Z,-0.90
2018-12-15T20:56:36.076Z,-0.90
2018-12-15T20:59:03.618Z,-0.90
2018-12-15T21:01:31.265Z,-0.90
2018-12-15T21:03:58.823Z,-0.90
2018-12-15T21:06:26.322Z,-0.80
2018-12-15T21:08:53.870Z,-0.80
2018-12-15T21:11:24.175Z,-0.80
2018-12-15T21:13:50.912Z,-0.90
2018-12-15T21:16:18.489Z,-0.90
2018-12-15T21:18:46.008Z,-0.90
2018-12-15T21:21:13.500Z,-0.90
2018-12-15T21:23:41.135Z,-0.90
2018-12-15T21:26:08.637Z,-1.00
2018-12-15T21:28:36.205Z,-1.00
2018-12-15T21:31:03.809Z,-1.00
2018-12-15T21:33:31.390Z,-1.00
2018-12-15T21:35:58.892Z,-1.00
2018-12-15T21:38:26.454Z,-1.00
2018-12-15T21:40:54.830Z,-1.10
2018-12-15T21:43:22.333Z,-1.10
2018-12-15T21:45:49.886Z,-1.10
2018-12-15T21:48:17.387Z,-1.00
2018-12-15T21:50:45.021Z,-1.00
2018-12-15T21:53:12.529Z,-1.00
2018-12-15T21:55:40.041Z,-1.00
2018-12-15T21:58:07.638Z,-1.00
2018-12-15T22:00:35.174Z,-1.00
2018-12-15T22:03:02.793Z,-1.00
2018-12-15T22:05:30.311Z,-1.00
2018-12-15T22:07:57.973Z,-1.00
2018-12-15T22:10:25.502Z,-1.00
2018-12-15T22:12:53.062Z,-1.00
2018-12-15T22:15:20.646Z,-1.00
2018-12-15T22:17:48.144Z,-1.00
2018-12-15T22:20:15.807Z,-1.00
2018-12-15T22:22:43.517Z,-1.00
2018-12-15T22:25:11.040Z,-1.00
2018-12-15T22:27:38.640Z,-1.00
2018-12-15T22:30:07.189Z,-1.00
2018-12-15T22:32:34.827Z,-1.10
2018-12-15T22:35:02.322Z,-1.10
2018-12-15T22:37:29.932Z,-1.00
2018-12-15T22:39:57.453Z,-1.00
2018-12-15T22:42:25.065Z,-1.00
2018-12-15T22:44:52.571Z,-1.00
2018-12-15T22:47:20.178Z,-1.00
2018-12-15T22:49:47.839Z,-1.00
2018-12-15T22:52:15.362Z,-1.00
2018-12-15T22:54:42.956Z,-1.00
2018-12-15T22:57:10.453Z,-1.00
2018-12-15T22:59:38.070Z,-1.00
2018-12-15T23:02:05.572Z,-1.00
2018-12-15T23:04:33.191Z,-1.00
2018-12-15T23:07:00.672Z,-1.00
2018-12-15T23:09:28.310Z,-1.00
2018-12-15T23:11:55.880Z,-1.00
2018-12-15T23:14:23.392Z,-1.00
2018-12-15T23:16:50.911Z,-1.10
2018-12-15T23:19:18.564Z,-1.10
2018-12-15T23:21:46.139Z,-1.10
2018-12-15T23:24:13.668Z,-1.00
2018-12-15T23:26:41.172Z,-1.00
2018-12-15T23:29:08.688Z,-1.00
2018-12-15T23:31:36.375Z,-1.00
2018-12-15T23:34:03.906Z,-1.00
2018-12-15T23:36:31.613Z,-1.00
2018-12-15T23:38:59.158Z,-1.00
2018-12-15T23:41:26.776Z,-1.00
2018-12-15T23:43:54.261Z,-1.10
2018-12-15T23:46:22.404Z,-1.20
2018-12-15T23:48:50.047Z,-1.10
2018-12-15T23:51:17.727Z,-1.10
2018-12-15T23:53:45.231Z,-1.00
2018-12-15T23:56:12.845Z,-1.00
2018-12-15T23:58:40.342Z,-1.00
